sensor_id;sensor_type;location;lat;lon;timestamp;pressure;altitude;pressure_sealevel;temperature;humidity
37066;BME280;22981;43.080;25.550;2023-04-20T00:00:42;99160.77;;;10.15;82.61
37066;BME280;22981;43.080;25.550;2023-04-20T00:03:09;99157.27;;;10.14;82.79
37066;BME280;22981;43.080;25.550;2023-04-20T00:05:38;99157.65;;;10.18;82.77
37066;BME280;22981;43.080;25.550;2023-04-20T00:08:05;99157.06;;;10.16;82.83
37066;BME280;22981;43.080;25.550;2023-04-20T00:10:33;99154.31;;;10.13;82.83
37066;BME280;22981;43.080;25.550;2023-04-20T00:13:01;99145.86;;;10.07;83.04
37066;BME280;22981;43.080;25.550;2023-04-20T00:15:28;99142.05;;;10.06;83.11
37066;BME280;22981;43.080;25.550;2023-04-20T00:17:56;99145.11;;;10.00;83.24
37066;BME280;22981;43.080;25.550;2023-04-20T00:20:24;99142.06;;;9.96;83.38
37066;BME280;22981;43.080;25.550;2023-04-20T00:22:51;99151.12;;;9.95;83.47
37066;BME280;22981;43.080;25.550;2023-04-20T00:25:19;99139.67;;;9.97;83.44
37066;BME280;22981;43.080;25.550;2023-04-20T00:27:47;99140.05;;;10.01;83.35
37066;BME280;22981;43.080;25.550;2023-04-20T00:30:14;99140.34;;;10.02;83.22
37066;BME280;22981;43.080;25.550;2023-04-20T00:32:42;99142.20;;;10.01;83.18
37066;BME280;22981;43.080;25.550;2023-04-20T00:35:09;99137.08;;;10.00;83.21
37066;BME280;22981;43.080;25.550;2023-04-20T00:37:37;99137.84;;;9.98;83.22
37066;BME280;22981;43.080;25.550;2023-04-20T00:40:05;99138.80;;;9.94;83.28
37066;BME280;22981;43.080;25.550;2023-04-20T00:42:34;99140.58;;;9.91;83.37
37066;BME280;22981;43.080;25.550;2023-04-20T00:45:02;99136.86;;;9.92;83.42
37066;BME280;22981;43.080;25.550;2023-04-20T00:47:29;99140.58;;;9.91;83.47
37066;BME280;22981;43.080;25.550;2023-04-20T00:49:57;99137.38;;;9.92;83.46
37066;BME280;22981;43.080;25.550;2023-04-20T00:52:26;99136.48;;;9.89;83.48
37066;BME280;22981;43.080;25.550;2023-04-20T00:54:54;99133.89;;;9.91;83.55
37066;BME280;22981;43.080;25.550;2023-04-20T00:57:22;99135.00;;;9.93;83.54
37066;BME280;22981;43.080;25.550;2023-04-20T00:59:50;99135.08;;;9.95;83.49
37066;BME280;22981;43.080;25.550;2023-04-20T01:02:17;99134.33;;;9.97;83.41
37066;BME280;22981;43.080;25.550;2023-04-20T01:04:46;99131.21;;;10.00;83.33
37066;BME280;22981;43.080;25.550;2023-04-20T01:07:14;99133.66;;;10.02;83.27
37066;BME280;22981;43.080;25.550;2023-04-20T01:09:41;99133.45;;;10.03;83.24
37066;BME280;22981;43.080;25.550;2023-04-20T01:12:09;99139.18;;;9.98;83.24
37066;BME280;22981;43.080;25.550;2023-04-20T01:14:37;99137.38;;;9.92;83.50
37066;BME280;22981;43.080;25.550;2023-04-20T01:17:04;99138.34;;;9.88;83.63
37066;BME280;22981;43.080;25.550;2023-04-20T01:19:32;99136.19;;;9.88;83.76
37066;BME280;22981;43.080;25.550;2023-04-20T01:22:00;99135.91;;;9.87;83.77
37066;BME280;22981;43.080;25.550;2023-04-20T01:24:27;99135.52;;;9.83;83.79
37066;BME280;22981;43.080;25.550;2023-04-20T01:26:55;99133.08;;;9.82;83.87
37066;BME280;22981;43.080;25.550;2023-04-20T01:29:23;99137.01;;;9.79;83.89
37066;BME280;22981;43.080;25.550;2023-04-20T01:31:50;99135.81;;;9.75;83.98
37066;BME280;22981;43.080;25.550;2023-04-20T01:34:18;99136.95;;;9.76;84.05
37066;BME280;22981;43.080;25.550;2023-04-20T01:36:45;99129.75;;;9.77;84.08
37066;BME280;22981;43.080;25.550;2023-04-20T01:39:13;99142.13;;;9.81;84.10
37066;BME280;22981;43.080;25.550;2023-04-20T01:41:41;99140.30;;;9.81;83.97
37066;BME280;22981;43.080;25.550;2023-04-20T01:44:08;99142.30;;;9.76;83.94
37066;BME280;22981;43.080;25.550;2023-04-20T01:46:37;99136.25;;;9.72;84.20
37066;BME280;22981;43.080;25.550;2023-04-20T01:49:05;99131.80;;;9.75;84.29
37066;BME280;22981;43.080;25.550;2023-04-20T01:51:36;99128.93;;;9.76;84.22
37066;BME280;22981;43.080;25.550;2023-04-20T01:54:03;99131.38;;;9.78;84.23
37066;BME280;22981;43.080;25.550;2023-04-20T01:56:31;99131.52;;;9.83;84.16
37066;BME280;22981;43.080;25.550;2023-04-20T01:58:59;99130.99;;;9.84;84.03
37066;BME280;22981;43.080;25.550;2023-04-20T02:01:26;99130.55;;;9.87;84.16
37066;BME280;22981;43.080;25.550;2023-04-20T02:03:54;99134.94;;;9.90;84.07
37066;BME280;22981;43.080;25.550;2023-04-20T02:06:21;99141.16;;;9.93;83.93
37066;BME280;22981;43.080;25.550;2023-04-20T02:08:49;99138.48;;;9.93;83.89
37066;BME280;22981;43.080;25.550;2023-04-20T02:11:16;99136.94;;;9.95;83.82
37066;BME280;22981;43.080;25.550;2023-04-20T02:13:44;99136.51;;;9.98;83.77
37066;BME280;22981;43.080;25.550;2023-04-20T02:16:11;99129.06;;;10.00;83.74
37066;BME280;22981;43.080;25.550;2023-04-20T02:18:39;99128.02;;;10.01;83.69
37066;BME280;22981;43.080;25.550;2023-04-20T02:21:07;99129.14;;;10.02;83.68
37066;BME280;22981;43.080;25.550;2023-04-20T02:23:34;99124.90;;;10.04;83.65
37066;BME280;22981;43.080;25.550;2023-04-20T02:26:02;99120.73;;;10.08;83.57
37066;BME280;22981;43.080;25.550;2023-04-20T02:28:29;99124.52;;;10.10;83.46
37066;BME280;22981;43.080;25.550;2023-04-20T02:30:57;99130.67;;;10.10;83.38
37066;BME280;22981;43.080;25.550;2023-04-20T02:33:25;99127.80;;;10.12;83.35
37066;BME280;22981;43.080;25.550;2023-04-20T02:35:52;99126.75;;;10.13;83.29
37066;BME280;22981;43.080;25.550;2023-04-20T02:38:20;99122.97;;;10.11;83.22
37066;BME280;22981;43.080;25.550;2023-04-20T02:40:47;99129.42;;;10.13;83.12
37066;BME280;22981;43.080;25.550;2023-04-20T02:43:15;99125.98;;;10.15;82.92
37066;BME280;22981;43.080;25.550;2023-04-20T02:45:42;99124.20;;;10.18;82.58
37066;BME280;22981;43.080;25.550;2023-04-20T02:48:10;99131.27;;;10.21;82.24
37066;BME280;22981;43.080;25.550;2023-04-20T02:50:38;99122.72;;;10.22;81.82
37066;BME280;22981;43.080;25.550;2023-04-20T02:53:07;99121.49;;;10.24;81.52
37066;BME280;22981;43.080;25.550;2023-04-20T02:55:35;99122.59;;;10.26;81.18
37066;BME280;22981;43.080;25.550;2023-04-20T02:58:02;99122.88;;;10.27;80.72
37066;BME280;22981;43.080;25.550;2023-04-20T03:00:30;99121.55;;;10.27;80.41
37066;BME280;22981;43.080;25.550;2023-04-20T03:02:58;99121.02;;;10.27;80.13
37066;BME280;22981;43.080;25.550;2023-04-20T03:05:25;99119.11;;;10.25;79.85
37066;BME280;22981;43.080;25.550;2023-04-20T03:07:53;99123.82;;;10.23;79.68
37066;BME280;22981;43.080;25.550;2023-04-20T03:10:21;99119.75;;;10.21;79.43
37066;BME280;22981;43.080;25.550;2023-04-20T03:12:48;99125.02;;;10.18;79.13
37066;BME280;22981;43.080;25.550;2023-04-20T03:15:16;99122.82;;;10.15;78.89
37066;BME280;22981;43.080;25.550;2023-04-20T03:17:44;99125.17;;;10.14;78.61
37066;BME280;22981;43.080;25.550;2023-04-20T03:20:12;99125.13;;;10.12;78.40
37066;BME280;22981;43.080;25.550;2023-04-20T03:22:40;99125.85;;;10.10;78.19
37066;BME280;22981;43.080;25.550;2023-04-20T03:25:07;99128.23;;;10.09;77.94
37066;BME280;22981;43.080;25.550;2023-04-20T03:27:35;99127.42;;;10.08;77.82
37066;BME280;22981;43.080;25.550;2023-04-20T03:30:03;99134.63;;;10.08;77.56
37066;BME280;22981;43.080;25.550;2023-04-20T03:32:30;99129.20;;;10.05;77.29
37066;BME280;22981;43.080;25.550;2023-04-20T03:34:58;99132.69;;;10.06;77.23
37066;BME280;22981;43.080;25.550;2023-04-20T03:37:25;99140.66;;;10.03;77.10
37066;BME280;22981;43.080;25.550;2023-04-20T03:39:53;99138.66;;;9.98;77.10
37066;BME280;22981;43.080;25.550;2023-04-20T03:42:21;99145.34;;;9.98;77.08
37066;BME280;22981;43.080;25.550;2023-04-20T03:44:48;99145.86;;;9.98;77.20
37066;BME280;22981;43.080;25.550;2023-04-20T03:47:16;99147.92;;;9.96;77.31
37066;BME280;22981;43.080;25.550;2023-04-20T03:49:43;99148.16;;;9.94;77.31
37066;BME280;22981;43.080;25.550;2023-04-20T03:52:11;99152.61;;;9.91;77.30
37066;BME280;22981;43.080;25.550;2023-04-20T03:54:39;99156.05;;;9.89;77.35
37066;BME280;22981;43.080;25.550;2023-04-20T03:57:06;99153.05;;;9.88;77.34
37066;BME280;22981;43.080;25.550;2023-04-20T03:59:34;99151.12;;;9.86;77.40
37066;BME280;22981;43.080;25.550;2023-04-20T04:02:01;99156.19;;;9.85;77.47
37066;BME280;22981;43.080;25.550;2023-04-20T04:04:31;99152.61;;;9.82;77.38
37066;BME280;22981;43.080;25.550;2023-04-20T04:06:58;99161.83;;;9.77;77.46
37066;BME280;22981;43.080;25.550;2023-04-20T04:09:26;99164.41;;;9.74;77.62
37066;BME280;22981;43.080;25.550;2023-04-20T04:11:54;99160.55;;;9.70;77.78
37066;BME280;22981;43.080;25.550;2023-04-20T04:14:22;99162.98;;;9.72;77.88
37066;BME280;22981;43.080;25.550;2023-04-20T04:16:50;99157.44;;;9.73;77.93
37066;BME280;22981;43.080;25.550;2023-04-20T04:19:18;99156.68;;;9.75;77.97
37066;BME280;22981;43.080;25.550;2023-04-20T04:21:45;99147.13;;;9.77;78.03
37066;BME280;22981;43.080;25.550;2023-04-20T04:24:13;99144.73;;;9.78;77.97
37066;BME280;22981;43.080;25.550;2023-04-20T04:26:40;99145.55;;;9.78;77.94
37066;BME280;22981;43.080;25.550;2023-04-20T04:29:08;99145.55;;;9.78;77.73
37066;BME280;22981;43.080;25.550;2023-04-20T04:31:36;99145.55;;;9.78;77.65
37066;BME280;22981;43.080;25.550;2023-04-20T04:34:04;99153.48;;;9.76;77.52
37066;BME280;22981;43.080;25.550;2023-04-20T04:36:31;99154.00;;;9.75;77.41
37066;BME280;22981;43.080;25.550;2023-04-20T04:39:00;99152.14;;;9.76;77.26
37066;BME280;22981;43.080;25.550;2023-04-20T04:41:27;99154.09;;;9.78;77.17
37066;BME280;22981;43.080;25.550;2023-04-20T04:43:55;99157.58;;;9.78;77.11
37066;BME280;22981;43.080;25.550;2023-04-20T04:46:24;99158.39;;;9.79;76.98
37066;BME280;22981;43.080;25.550;2023-04-20T04:48:52;99162.17;;;9.81;76.90
37066;BME280;22981;43.080;25.550;2023-04-20T04:51:21;99156.91;;;9.83;76.89
37066;BME280;22981;43.080;25.550;2023-04-20T04:53:49;99160.55;;;9.89;76.85
37066;BME280;22981;43.080;25.550;2023-04-20T04:56:17;99168.13;;;9.92;76.81
37066;BME280;22981;43.080;25.550;2023-04-20T04:58:45;99168.36;;;9.99;76.84
37066;BME280;22981;43.080;25.550;2023-04-20T05:01:13;99165.45;;;10.01;76.60
37066;BME280;22981;43.080;25.550;2023-04-20T05:03:41;99167.08;;;10.02;76.46
37066;BME280;22981;43.080;25.550;2023-04-20T05:06:08;99174.14;;;10.06;76.42
37066;BME280;22981;43.080;25.550;2023-04-20T05:08:36;99169.17;;;10.09;76.58
37066;BME280;22981;43.080;25.550;2023-04-20T05:11:03;99167.16;;;10.14;76.62
37066;BME280;22981;43.080;25.550;2023-04-20T05:13:31;99168.88;;;10.17;76.58
37066;BME280;22981;43.080;25.550;2023-04-20T05:15:58;99167.91;;;10.21;76.54
37066;BME280;22981;43.080;25.550;2023-04-20T05:18:26;99176.91;;;10.26;76.51
37066;BME280;22981;43.080;25.550;2023-04-20T05:20:53;99172.55;;;10.32;76.46
37066;BME280;22981;43.080;25.550;2023-04-20T05:23:21;99168.34;;;10.36;76.49
37066;BME280;22981;43.080;25.550;2023-04-20T05:25:48;99169.70;;;10.45;76.61
37066;BME280;22981;43.080;25.550;2023-04-20T05:28:16;99175.03;;;10.55;76.73
37066;BME280;22981;43.080;25.550;2023-04-20T05:30:44;99175.08;;;10.57;76.78
37066;BME280;22981;43.080;25.550;2023-04-20T05:33:11;99177.76;;;10.57;76.68
37066;BME280;22981;43.080;25.550;2023-04-20T05:35:39;99180.67;;;10.56;76.61
37066;BME280;22981;43.080;25.550;2023-04-20T05:38:06;99183.22;;;10.50;76.44
37066;BME280;22981;43.080;25.550;2023-04-20T05:40:34;99182.92;;;10.49;76.53
37066;BME280;22981;43.080;25.550;2023-04-20T05:43:02;99185.08;;;10.50;76.55
37066;BME280;22981;43.080;25.550;2023-04-20T05:45:29;99184.60;;;10.53;76.58
37066;BME280;22981;43.080;25.550;2023-04-20T05:47:58;99182.44;;;10.71;76.54
37066;BME280;22981;43.080;25.550;2023-04-20T05:50:26;99186.34;;;10.98;76.14
37066;BME280;22981;43.080;25.550;2023-04-20T05:52:54;99191.89;;;11.27;75.63
37066;BME280;22981;43.080;25.550;2023-04-20T05:55:21;99182.81;;;11.51;75.12
37066;BME280;22981;43.080;25.550;2023-04-20T05:57:50;99186.21;;;11.70;74.47
37066;BME280;22981;43.080;25.550;2023-04-20T06:00:18;99184.73;;;11.86;73.94
37066;BME280;22981;43.080;25.550;2023-04-20T06:02:46;99183.70;;;11.90;73.56
37066;BME280;22981;43.080;25.550;2023-04-20T06:05:14;99181.27;;;11.88;73.13
37066;BME280;22981;43.080;25.550;2023-04-20T06:07:41;99181.84;;;11.90;72.99
37066;BME280;22981;43.080;25.550;2023-04-20T06:10:09;99189.25;;;11.97;72.90
37066;BME280;22981;43.080;25.550;2023-04-20T06:12:37;99185.11;;;12.04;72.62
37066;BME280;22981;43.080;25.550;2023-04-20T06:15:05;99185.50;;;12.10;72.01
37066;BME280;22981;43.080;25.550;2023-04-20T06:17:35;99179.48;;;12.17;71.56
37066;BME280;22981;43.080;25.550;2023-04-20T06:20:10;99174.75;;;12.22;71.22
37066;BME280;22981;43.080;25.550;2023-04-20T06:22:34;99178.52;;;12.23;70.74
37066;BME280;22981;43.080;25.550;2023-04-20T06:25:02;99177.25;;;12.26;70.27
37066;BME280;22981;43.080;25.550;2023-04-20T06:27:30;99180.91;;;12.48;69.71
37066;BME280;22981;43.080;25.550;2023-04-20T06:29:57;99174.34;;;12.70;68.98
37066;BME280;22981;43.080;25.550;2023-04-20T06:32:25;99179.47;;;12.86;68.35
37066;BME280;22981;43.080;25.550;2023-04-20T06:34:52;99170.37;;;13.04;67.47
37066;BME280;22981;43.080;25.550;2023-04-20T06:37:20;99169.44;;;13.13;67.02
37066;BME280;22981;43.080;25.550;2023-04-20T06:39:51;99175.63;;;13.13;66.97
37066;BME280;22981;43.080;25.550;2023-04-20T06:42:16;99174.77;;;13.10;66.86
37066;BME280;22981;43.080;25.550;2023-04-20T06:44:44;99176.50;;;13.16;66.63
37066;BME280;22981;43.080;25.550;2023-04-20T06:47:12;99177.11;;;13.21;66.40
37066;BME280;22981;43.080;25.550;2023-04-20T06:49:40;99185.56;;;13.27;66.52
37066;BME280;22981;43.080;25.550;2023-04-20T06:52:08;99176.53;;;13.33;65.81
37066;BME280;22981;43.080;25.550;2023-04-20T06:54:36;99179.55;;;13.37;65.72
37066;BME280;22981;43.080;25.550;2023-04-20T06:57:03;99182.59;;;13.43;65.82
37066;BME280;22981;43.080;25.550;2023-04-20T06:59:31;99185.08;;;13.47;65.74
37066;BME280;22981;43.080;25.550;2023-04-20T07:01:59;99185.16;;;13.52;65.59
37066;BME280;22981;43.080;25.550;2023-04-20T07:04:26;99187.41;;;13.58;65.28
37066;BME280;22981;43.080;25.550;2023-04-20T07:06:54;99190.78;;;13.67;65.10
37066;BME280;22981;43.080;25.550;2023-04-20T07:09:21;99191.70;;;13.75;65.29
37066;BME280;22981;43.080;25.550;2023-04-20T07:11:50;99189.62;;;13.80;65.39
37066;BME280;22981;43.080;25.550;2023-04-20T07:14:17;99192.31;;;13.80;65.17
37066;BME280;22981;43.080;25.550;2023-04-20T07:16:45;99195.02;;;13.83;65.25
37066;BME280;22981;43.080;25.550;2023-04-20T07:19:13;99190.50;;;13.86;65.34
37066;BME280;22981;43.080;25.550;2023-04-20T07:21:41;99192.66;;;13.86;64.98
37066;BME280;22981;43.080;25.550;2023-04-20T07:24:08;99192.33;;;13.83;64.99
37066;BME280;22981;43.080;25.550;2023-04-20T07:26:36;99196.34;;;13.80;65.12
37066;BME280;22981;43.080;25.550;2023-04-20T07:29:03;99189.57;;;13.77;65.15
37066;BME280;22981;43.080;25.550;2023-04-20T07:31:31;99191.73;;;13.78;65.13
37066;BME280;22981;43.080;25.550;2023-04-20T07:33:58;99199.27;;;13.78;65.16
37066;BME280;22981;43.080;25.550;2023-04-20T07:36:26;99191.50;;;13.80;65.11
37066;BME280;22981;43.080;25.550;2023-04-20T07:38:53;99197.44;;;13.82;65.26
37066;BME280;22981;43.080;25.550;2023-04-20T07:41:21;99194.26;;;13.85;65.32
37066;BME280;22981;43.080;25.550;2023-04-20T07:43:49;99187.55;;;13.87;65.27
37066;BME280;22981;43.080;25.550;2023-04-20T07:46:20;99184.91;;;13.90;64.99
37066;BME280;22981;43.080;25.550;2023-04-20T07:48:48;99186.04;;;13.94;64.72
37066;BME280;22981;43.080;25.550;2023-04-20T07:51:16;99184.22;;;13.99;64.75
37066;BME280;22981;43.080;25.550;2023-04-20T07:53:43;99177.66;;;14.12;64.50
37066;BME280;22981;43.080;25.550;2023-04-20T07:56:11;99182.33;;;14.41;64.03
37066;BME280;22981;43.080;25.550;2023-04-20T07:58:38;99176.11;;;14.60;63.59
37066;BME280;22981;43.080;25.550;2023-04-20T08:01:06;99180.55;;;14.71;63.28
37066;BME280;22981;43.080;25.550;2023-04-20T08:03:34;99178.78;;;14.82;62.80
37066;BME280;22981;43.080;25.550;2023-04-20T08:06:01;99179.69;;;14.93;62.45
37066;BME280;22981;43.080;25.550;2023-04-20T08:08:29;99171.52;;;15.12;62.01
37066;BME280;22981;43.080;25.550;2023-04-20T08:10:57;99168.77;;;15.39;61.57
37066;BME280;22981;43.080;25.550;2023-04-20T08:13:24;99164.45;;;15.73;60.79
37066;BME280;22981;43.080;25.550;2023-04-20T08:15:53;99156.42;;;15.86;60.40
37066;BME280;22981;43.080;25.550;2023-04-20T08:18:20;99152.92;;;15.85;60.39
37066;BME280;22981;43.080;25.550;2023-04-20T08:20:48;99157.75;;;15.81;60.46
37066;BME280;22981;43.080;25.550;2023-04-20T08:23:16;99156.67;;;15.84;59.68
37066;BME280;22981;43.080;25.550;2023-04-20T08:25:44;99152.17;;;16.00;59.26
37066;BME280;22981;43.080;25.550;2023-04-20T08:28:11;99154.40;;;16.11;59.12
37066;BME280;22981;43.080;25.550;2023-04-20T08:30:40;99151.45;;;16.15;59.22
37066;BME280;22981;43.080;25.550;2023-04-20T08:33:07;99152.75;;;16.07;59.40
37066;BME280;22981;43.080;25.550;2023-04-20T08:35:35;99151.61;;;15.95;59.63
37066;BME280;22981;43.080;25.550;2023-04-20T08:38:02;99156.45;;;15.91;59.80
37066;BME280;22981;43.080;25.550;2023-04-20T08:40:31;99153.16;;;15.84;59.56
37066;BME280;22981;43.080;25.550;2023-04-20T08:42:58;99158.56;;;15.81;59.25
37066;BME280;22981;43.080;25.550;2023-04-20T08:45:26;99151.00;;;15.83;59.48
37066;BME280;22981;43.080;25.550;2023-04-20T08:48:00;99152.08;;;15.82;59.57
37066;BME280;22981;43.080;25.550;2023-04-20T08:50:25;99158.78;;;15.74;59.86
37066;BME280;22981;43.080;25.550;2023-04-20T08:52:52;99154.67;;;15.67;59.75
37066;BME280;22981;43.080;25.550;2023-04-20T08:55:20;99160.02;;;15.59;60.24
37066;BME280;22981;43.080;25.550;2023-04-20T08:57:48;99154.56;;;15.54;60.48
37066;BME280;22981;43.080;25.550;2023-04-20T09:00:16;99147.25;;;15.47;60.56
37066;BME280;22981;43.080;25.550;2023-04-20T09:02:55;99153.16;;;15.44;60.80
37066;BME280;22981;43.080;25.550;2023-04-20T09:05:28;99155.04;;;15.43;60.90
37066;BME280;22981;43.080;25.550;2023-04-20T09:07:58;99151.30;;;15.47;60.75
37066;BME280;22981;43.080;25.550;2023-04-20T09:10:37;99151.71;;;15.66;60.46
37066;BME280;22981;43.080;25.550;2023-04-20T09:12:57;99153.84;;;16.06;59.70
37066;BME280;22981;43.080;25.550;2023-04-20T09:15:26;99149.48;;;16.05;59.33
37066;BME280;22981;43.080;25.550;2023-04-20T09:17:54;99157.80;;;15.91;59.36
37066;BME280;22981;43.080;25.550;2023-04-20T09:20:33;99148.79;;;15.75;59.43
37066;BME280;22981;43.080;25.550;2023-04-20T09:23:08;99148.68;;;15.62;59.62
37066;BME280;22981;43.080;25.550;2023-04-20T09:25:30;99151.62;;;15.56;59.77
37066;BME280;22981;43.080;25.550;2023-04-20T09:27:59;99151.81;;;15.81;60.31
37066;BME280;22981;43.080;25.550;2023-04-20T09:30:42;99152.23;;;16.13;59.43
37066;BME280;22981;43.080;25.550;2023-04-20T09:33:07;99145.03;;;16.39;59.13
37066;BME280;22981;43.080;25.550;2023-04-20T09:35:41;99150.23;;;16.66;58.64
37066;BME280;22981;43.080;25.550;2023-04-20T09:38:08;99152.18;;;16.73;58.03
37066;BME280;22981;43.080;25.550;2023-04-20T09:40:35;99151.34;;;16.67;57.84
37066;BME280;22981;43.080;25.550;2023-04-20T09:43:08;99145.90;;;16.55;58.10
37066;BME280;22981;43.080;25.550;2023-04-20T09:45:33;99149.09;;;16.44;58.49
37066;BME280;22981;43.080;25.550;2023-04-20T09:48:03;99147.19;;;16.34;58.67
37066;BME280;22981;43.080;25.550;2023-04-20T09:50:33;99145.82;;;16.29;58.68
37066;BME280;22981;43.080;25.550;2023-04-20T09:53:02;99142.58;;;16.30;58.71
37066;BME280;22981;43.080;25.550;2023-04-20T09:55:31;99145.06;;;16.46;58.25
37066;BME280;22981;43.080;25.550;2023-04-20T09:58:05;99142.47;;;16.74;57.92
37066;BME280;22981;43.080;25.550;2023-04-20T10:00:29;99138.96;;;16.99;57.56
37066;BME280;22981;43.080;25.550;2023-04-20T10:02:57;99135.73;;;17.15;57.61
37066;BME280;22981;43.080;25.550;2023-04-20T10:05:34;99140.05;;;17.16;57.40
37066;BME280;22981;43.080;25.550;2023-04-20T10:08:04;99134.64;;;17.03;57.32
37066;BME280;22981;43.080;25.550;2023-04-20T10:10:48;99126.25;;;16.90;57.23
37066;BME280;22981;43.080;25.550;2023-04-20T10:13:12;99129.50;;;16.79;57.71
37066;BME280;22981;43.080;25.550;2023-04-20T10:15:40;99127.86;;;16.73;57.91
37066;BME280;22981;43.080;25.550;2023-04-20T10:20:44;99125.16;;;16.78;57.84
37066;BME280;22981;43.080;25.550;2023-04-20T10:23:12;99126.23;;;16.77;57.83
37066;BME280;22981;43.080;25.550;2023-04-20T10:25:55;99124.63;;;16.76;57.86
37066;BME280;22981;43.080;25.550;2023-04-20T10:28:23;99117.60;;;16.75;57.77
37066;BME280;22981;43.080;25.550;2023-04-20T10:30:52;99124.30;;;16.70;57.72
37066;BME280;22981;43.080;25.550;2023-04-20T10:33:19;99124.55;;;16.61;57.90
37066;BME280;22981;43.080;25.550;2023-04-20T10:35:52;99125.06;;;16.47;58.25
37066;BME280;22981;43.080;25.550;2023-04-20T10:38:36;99122.88;;;16.34;58.69
37066;BME280;22981;43.080;25.550;2023-04-20T10:43:35;99112.28;;;16.17;59.18
37066;BME280;22981;43.080;25.550;2023-04-20T10:46:24;99113.91;;;16.16;59.39
37066;BME280;22981;43.080;25.550;2023-04-20T10:48:55;99114.69;;;16.14;59.27
37066;BME280;22981;43.080;25.550;2023-04-20T10:51:23;99119.83;;;16.10;59.05
37066;BME280;22981;43.080;25.550;2023-04-20T10:54:02;99118.46;;;16.08;59.01
37066;BME280;22981;43.080;25.550;2023-04-20T10:56:47;99127.34;;;16.06;58.86
37066;BME280;22981;43.080;25.550;2023-04-20T10:59:21;99119.52;;;16.04;58.68
37066;BME280;22981;43.080;25.550;2023-04-20T11:01:45;99119.50;;;16.01;58.88
37066;BME280;22981;43.080;25.550;2023-04-20T11:04:13;99128.44;;;16.02;59.19
37066;BME280;22981;43.080;25.550;2023-04-20T11:06:43;99127.33;;;16.00;59.57
37066;BME280;22981;43.080;25.550;2023-04-20T11:09:24;99116.54;;;15.98;59.52
37066;BME280;22981;43.080;25.550;2023-04-20T11:14:35;99119.73;;;15.92;59.44
37066;BME280;22981;43.080;25.550;2023-04-20T11:17:08;99119.75;;;15.95;59.37
37066;BME280;22981;43.080;25.550;2023-04-20T11:19:36;99116.53;;;16.00;59.58
37066;BME280;22981;43.080;25.550;2023-04-20T11:22:04;99116.03;;;16.06;59.83
37066;BME280;22981;43.080;25.550;2023-04-20T11:24:34;99121.98;;;16.13;59.69
37066;BME280;22981;43.080;25.550;2023-04-20T11:27:03;99114.98;;;16.17;59.67
37066;BME280;22981;43.080;25.550;2023-04-20T11:32:06;99115.31;;;16.34;59.54
37066;BME280;22981;43.080;25.550;2023-04-20T11:34:36;99113.20;;;16.56;58.79
37066;BME280;22981;43.080;25.550;2023-04-20T11:37:04;99097.03;;;16.74;58.23
37066;BME280;22981;43.080;25.550;2023-04-20T11:39:33;99093.53;;;16.91;57.64
37066;BME280;22981;43.080;25.550;2023-04-20T11:42:00;99089.22;;;17.26;57.62
37066;BME280;22981;43.080;25.550;2023-04-20T11:44:28;99089.14;;;17.62;56.49
37066;BME280;22981;43.080;25.550;2023-04-20T11:46:56;99082.90;;;17.69;56.73
37066;BME280;22981;43.080;25.550;2023-04-20T11:49:25;99083.64;;;17.92;55.97
37066;BME280;22981;43.080;25.550;2023-04-20T11:51:54;99079.47;;;18.15;55.55
37066;BME280;22981;43.080;25.550;2023-04-20T11:54:21;99074.56;;;18.25;54.00
37066;BME280;22981;43.080;25.550;2023-04-20T11:56:49;99077.37;;;18.02;54.62
37066;BME280;22981;43.080;25.550;2023-04-20T11:59:17;99078.84;;;17.74;55.77
37066;BME280;22981;43.080;25.550;2023-04-20T12:01:45;99079.98;;;17.47;56.13
37066;BME280;22981;43.080;25.550;2023-04-20T12:04:13;99075.13;;;17.24;56.69
37066;BME280;22981;43.080;25.550;2023-04-20T12:06:41;99075.70;;;17.06;57.36
37066;BME280;22981;43.080;25.550;2023-04-20T12:09:08;99074.89;;;16.92;57.82
37066;BME280;22981;43.080;25.550;2023-04-20T12:11:36;99071.63;;;16.83;58.39
37066;BME280;22981;43.080;25.550;2023-04-20T12:14:03;99071.91;;;16.76;58.42
37066;BME280;22981;43.080;25.550;2023-04-20T12:16:31;99065.11;;;16.68;58.83
37066;BME280;22981;43.080;25.550;2023-04-20T12:18:58;99063.22;;;16.69;58.74
37066;BME280;22981;43.080;25.550;2023-04-20T12:21:26;99067.30;;;16.74;58.24
37066;BME280;22981;43.080;25.550;2023-04-20T12:23:54;99064.06;;;17.10;57.44
37066;BME280;22981;43.080;25.550;2023-04-20T12:26:22;99056.70;;;17.51;56.38
37066;BME280;22981;43.080;25.550;2023-04-20T12:28:50;99051.48;;;17.78;56.22
37066;BME280;22981;43.080;25.550;2023-04-20T12:31:17;99044.41;;;17.87;56.25
37066;BME280;22981;43.080;25.550;2023-04-20T12:33:45;99062.86;;;17.78;55.80
37066;BME280;22981;43.080;25.550;2023-04-20T12:36:12;99061.80;;;17.61;56.84
37066;BME280;22981;43.080;25.550;2023-04-20T12:38:40;99058.07;;;17.36;58.03
37066;BME280;22981;43.080;25.550;2023-04-20T12:41:11;99055.94;;;17.08;59.14
37066;BME280;22981;43.080;25.550;2023-04-20T12:43:37;99052.98;;;16.81;60.39
37066;BME280;22981;43.080;25.550;2023-04-20T12:46:04;99055.39;;;16.62;61.72
37066;BME280;22981;43.080;25.550;2023-04-20T12:48:32;99064.28;;;16.45;63.23
37066;BME280;22981;43.080;25.550;2023-04-20T12:51:00;99059.38;;;16.29;63.70
37066;BME280;22981;43.080;25.550;2023-04-20T12:53:27;99062.07;;;16.19;64.03
37066;BME280;22981;43.080;25.550;2023-04-20T12:55:55;99058.53;;;16.11;64.33
37066;BME280;22981;43.080;25.550;2023-04-20T12:58:22;99053.08;;;16.00;64.26
37066;BME280;22981;43.080;25.550;2023-04-20T13:00:50;99054.40;;;15.93;64.68
37066;BME280;22981;43.080;25.550;2023-04-20T13:03:17;99048.16;;;15.82;65.61
37066;BME280;22981;43.080;25.550;2023-04-20T13:05:45;99042.48;;;15.78;66.09
37066;BME280;22981;43.080;25.550;2023-04-20T13:08:13;99050.94;;;15.97;65.90